sensor_id;sensor_type;location;lat;lon;timestamp;temperature;humidity
51878;SHT31;37911;51.526;11.536;2024-01-16T00:00:29;0.04;83.93
51878;SHT31;37911;51.526;11.536;2024-01-16T00:03:32;-0.01;84.05
51878;SHT31;37911;51.526;11.536;2024-01-16T00:06:38;0.04;83.93
51878;SHT31;37911;51.526;11.536;2024-01-16T00:09:44;0.02;83.81
51878;SHT31;37911;51.526;11.536;2024-01-16T00:12:51;0.08;83.78
51878;SHT31;37911;51.526;11.536;2024-01-16T00:15:55;0.04;83.82
51878;SHT31;37911;51.526;11.536;2024-01-16T00:18:59;0.09;83.94
51878;SHT31;37911;51.526;11.536;2024-01-16T00:22:03;0.06;84.06
51878;SHT31;37911;51.526;11.536;2024-01-16T00:25:09;0.01;84.21
51878;SHT31;37911;51.526;11.536;2024-01-16T00:28:13;-0.02;84.52
51878;SHT31;37911;51.526;11.536;2024-01-16T00:31:16;0.01;84.46
51878;SHT31;37911;51.526;11.536;2024-01-16T00:34:19;0.08;84.14
51878;SHT31;37911;51.526;11.536;2024-01-16T00:37:23;0.08;84.31
51878;SHT31;37911;51.526;11.536;2024-01-16T00:40:29;0.09;84.32
51878;SHT31;37911;51.526;11.536;2024-01-16T00:43:32;0.09;84.40
51878;SHT31;37911;51.526;11.536;2024-01-16T00:46:35;0.04;84.53
51878;SHT31;37911;51.526;11.536;2024-01-16T00:49:39;0.08;84.30
51878;SHT31;37911;51.526;11.536;2024-01-16T00:52:42;0.11;84.06
51878;SHT31;37911;51.526;11.536;2024-01-16T00:55:48;0.15;83.73
51878;SHT31;37911;51.526;11.536;2024-01-16T00:58:52;0.16;83.68
51878;SHT31;37911;51.526;11.536;2024-01-16T01:01:56;0.18;83.66
51878;SHT31;37911;51.526;11.536;2024-01-16T01:05:00;0.16;83.60
51878;SHT31;37911;51.526;11.536;2024-01-16T01:08:04;0.16;83.64
51878;SHT31;37911;51.526;11.536;2024-01-16T01:11:11;0.08;83.76
51878;SHT31;37911;51.526;11.536;2024-01-16T01:14:14;0.16;83.41
51878;SHT31;37911;51.526;11.536;2024-01-16T01:17:17;0.22;83.10
51878;SHT31;37911;51.526;11.536;2024-01-16T01:20:21;0.19;83.52
51878;SHT31;37911;51.526;11.536;2024-01-16T01:23:24;0.18;83.69
51878;SHT31;37911;51.526;11.536;2024-01-16T01:26:30;0.16;84.04
51878;SHT31;37911;51.526;11.536;2024-01-16T01:29:33;0.12;84.25
51878;SHT31;37911;51.526;11.536;2024-01-16T01:32:37;0.19;84.39
51878;SHT31;37911;51.526;11.536;2024-01-16T01:35:40;0.16;84.51
51878;SHT31;37911;51.526;11.536;2024-01-16T01:38:44;0.22;84.53
51878;SHT31;37911;51.526;11.536;2024-01-16T01:41:49;0.19;84.64
51878;SHT31;37911;51.526;11.536;2024-01-16T01:44:53;0.18;84.40
51878;SHT31;37911;51.526;11.536;2024-01-16T01:47:56;0.16;84.31
51878;SHT31;37911;51.526;11.536;2024-01-16T01:51:00;0.19;83.92
51878;SHT31;37911;51.526;11.536;2024-01-16T01:54:04;0.26;83.23
51878;SHT31;37911;51.526;11.536;2024-01-16T01:57:11;0.28;83.10
51878;SHT31;37911;51.526;11.536;2024-01-16T02:00:14;0.21;82.97
51878;SHT31;37911;51.526;11.536;2024-01-16T02:03:20;0.26;82.84
51878;SHT31;37911;51.526;11.536;2024-01-16T02:06:24;0.22;82.96
51878;SHT31;37911;51.526;11.536;2024-01-16T02:09:27;0.18;83.27
51878;SHT31;37911;51.526;11.536;2024-01-16T02:12:33;0.21;83.37
51878;SHT31;37911;51.526;11.536;2024-01-16T02:15:37;0.21;83.70
51878;SHT31;37911;51.526;11.536;2024-01-16T02:18:41;0.12;84.22
51878;SHT31;37911;51.526;11.536;2024-01-16T02:21:47;0.09;84.79
51878;SHT31;37911;51.526;11.536;2024-01-16T02:24:54;0.08;85.08
51878;SHT31;37911;51.526;11.536;2024-01-16T02:27:59;0.12;85.52
51878;SHT31;37911;51.526;11.536;2024-01-16T02:31:03;0.05;86.06
51878;SHT31;37911;51.526;11.536;2024-01-16T02:34:07;-0.03;86.36
51878;SHT31;37911;51.526;11.536;2024-01-16T02:37:10;-0.02;86.18
51878;SHT31;37911;51.526;11.536;2024-01-16T02:40:16;-0.07;86.02
51878;SHT31;37911;51.526;11.536;2024-01-16T02:43:19;-0.06;85.65
51878;SHT31;37911;51.526;11.536;2024-01-16T02:46:23;-0.09;85.35
51878;SHT31;37911;51.526;11.536;2024-01-16T02:49:26;-0.10;85.06
51878;SHT31;37911;51.526;11.536;2024-01-16T02:52:32;-0.09;84.72
51878;SHT31;37911;51.526;11.536;2024-01-16T02:55:38;-0.05;84.16
51878;SHT31;37911;51.526;11.536;2024-01-16T02:58:41;-0.07;83.85
51878;SHT31;37911;51.526;11.536;2024-01-16T03:01:45;-0.09;83.73
51878;SHT31;37911;51.526;11.536;2024-01-16T03:04:48;-0.19;83.60
51878;SHT31;37911;51.526;11.536;2024-01-16T03:07:51;-0.15;83.29
51878;SHT31;37911;51.526;11.536;2024-01-16T03:10:57;-0.20;83.32
51878;SHT31;37911;51.526;11.536;2024-01-16T03:14:00;-0.12;81.82
51878;SHT31;37911;51.526;11.536;2024-01-16T03:17:04;-0.19;81.97
51878;SHT31;37911;51.526;11.536;2024-01-16T03:20:08;-0.17;81.14
51878;SHT31;37911;51.526;11.536;2024-01-16T03:23:12;-0.17;81.11
51878;SHT31;37911;51.526;11.536;2024-01-16T03:26:18;-0.17;81.01
51878;SHT31;37911;51.526;11.536;2024-01-16T03:29:21;-0.13;81.48
51878;SHT31;37911;51.526;11.536;2024-01-16T03:32:24;-0.12;81.91
51878;SHT31;37911;51.526;11.536;2024-01-16T03:35:27;-0.07;82.23
51878;SHT31;37911;51.526;11.536;2024-01-16T03:38:31;-0.10;82.66
51878;SHT31;37911;51.526;11.536;2024-01-16T03:41:37;-0.10;82.84
51878;SHT31;37911;51.526;11.536;2024-01-16T03:44:40;-0.10;83.21
51878;SHT31;37911;51.526;11.536;2024-01-16T03:47:43;-0.17;83.71
51878;SHT31;37911;51.526;11.536;2024-01-16T03:50:47;-0.25;83.96
51878;SHT31;37911;51.526;11.536;2024-01-16T03:53:50;-0.20;84.05
51878;SHT31;37911;51.526;11.536;2024-01-16T03:56:56;-0.30;84.21
51878;SHT31;37911;51.526;11.536;2024-01-16T03:59:59;-0.27;84.15
51878;SHT31;37911;51.526;11.536;2024-01-16T04:03:05;-0.23;84.03
51878;SHT31;37911;51.526;11.536;2024-01-16T04:06:15;-0.26;84.05
51878;SHT31;37911;51.526;11.536;2024-01-16T04:09:19;-0.23;84.05
51878;SHT31;37911;51.526;11.536;2024-01-16T04:12:25;-0.23;84.11
51878;SHT31;37911;51.526;11.536;2024-01-16T04:15:28;-0.26;84.77
51878;SHT31;37911;51.526;11.536;2024-01-16T04:18:35;-0.27;85.16
51878;SHT31;37911;51.526;11.536;2024-01-16T04:21:38;-0.29;85.66
51878;SHT31;37911;51.526;11.536;2024-01-16T04:24:41;-0.32;85.83
51878;SHT31;37911;51.526;11.536;2024-01-16T04:27:47;-0.41;86.33
51878;SHT31;37911;51.526;11.536;2024-01-16T04:30:51;-0.41;86.33
51878;SHT31;37911;51.526;11.536;2024-01-16T04:33:54;-0.39;86.14
51878;SHT31;37911;51.526;11.536;2024-01-16T04:36:58;-0.41;85.83
51878;SHT31;37911;51.526;11.536;2024-01-16T04:40:01;-0.49;85.79
51878;SHT31;37911;51.526;11.536;2024-01-16T04:43:08;-0.52;85.46
51878;SHT31;37911;51.526;11.536;2024-01-16T04:46:12;-0.50;85.17
51878;SHT31;37911;51.526;11.536;2024-01-16T04:49:17;-0.49;84.86
51878;SHT31;37911;51.526;11.536;2024-01-16T04:52:20;-0.47;85.00
51878;SHT31;37911;51.526;11.536;2024-01-16T04:55:23;-0.41;84.82
51878;SHT31;37911;51.526;11.536;2024-01-16T04:58:29;-0.46;84.68
51878;SHT31;37911;51.526;11.536;2024-01-16T05:01:33;-0.39;84.43
51878;SHT31;37911;51.526;11.536;2024-01-16T05:04:37;-0.33;83.71
51878;SHT31;37911;51.526;11.536;2024-01-16T05:07:41;-0.39;83.66
51878;SHT31;37911;51.526;11.536;2024-01-16T05:10:44;-0.43;84.02
51878;SHT31;37911;51.526;11.536;2024-01-16T05:13:50;-0.43;84.30
51878;SHT31;37911;51.526;11.536;2024-01-16T05:16:58;-0.49;84.49
51878;SHT31;37911;51.526;11.536;2024-01-16T05:20:02;-0.34;83.93
51878;SHT31;37911;51.526;11.536;2024-01-16T05:23:06;-0.36;83.80
51878;SHT31;37911;51.526;11.536;2024-01-16T05:26:10;-0.37;83.69
51878;SHT31;37911;51.526;11.536;2024-01-16T05:29:17;-0.39;83.61
51878;SHT31;37911;51.526;11.536;2024-01-16T05:32:21;-0.44;84.19
51878;SHT31;37911;51.526;11.536;2024-01-16T05:35:25;-0.43;84.00
51878;SHT31;37911;51.526;11.536;2024-01-16T05:38:28;-0.49;83.89
51878;SHT31;37911;51.526;11.536;2024-01-16T05:41:32;-0.53;83.84
51878;SHT31;37911;51.526;11.536;2024-01-16T05:44:39;-0.56;83.61
51878;SHT31;37911;51.526;11.536;2024-01-16T05:47:43;-0.56;83.20
51878;SHT31;37911;51.526;11.536;2024-01-16T05:50:46;-0.57;83.13
51878;SHT31;37911;51.526;11.536;2024-01-16T05:53:49;-0.60;83.01
51878;SHT31;37911;51.526;11.536;2024-01-16T05:56:53;-0.63;82.96
51878;SHT31;37911;51.526;11.536;2024-01-16T05:59:59;-0.63;83.29
51878;SHT31;37911;51.526;11.536;2024-01-16T06:03:06;-0.61;83.97
51878;SHT31;37911;51.526;11.536;2024-01-16T06:06:09;-0.56;84.56
51878;SHT31;37911;51.526;11.536;2024-01-16T06:09:12;-0.60;85.29
51878;SHT31;37911;51.526;11.536;2024-01-16T06:12:16;-0.66;86.07
51878;SHT31;37911;51.526;11.536;2024-01-16T06:15:22;-0.67;87.03
51878;SHT31;37911;51.526;11.536;2024-01-16T06:18:26;-0.66;87.36
51878;SHT31;37911;51.526;11.536;2024-01-16T06:21:29;-0.76;88.23
51878;SHT31;37911;51.526;11.536;2024-01-16T06:24:33;-0.78;88.66
51878;SHT31;37911;51.526;11.536;2024-01-16T06:27:37;-0.83;89.25
51878;SHT31;37911;51.526;11.536;2024-01-16T06:30:43;-0.88;89.48
51878;SHT31;37911;51.526;11.536;2024-01-16T06:33:47;-0.81;89.32
51878;SHT31;37911;51.526;11.536;2024-01-16T06:36:50;-0.87;89.35
51878;SHT31;37911;51.526;11.536;2024-01-16T06:39:53;-0.92;89.53
51878;SHT31;37911;51.526;11.536;2024-01-16T06:42:57;-0.95;89.60
51878;SHT31;37911;51.526;11.536;2024-01-16T06:46:03;-0.91;89.39
51878;SHT31;37911;51.526;11.536;2024-01-16T06:49:06;-0.97;89.41
51878;SHT31;37911;51.526;11.536;2024-01-16T06:52:09;-0.95;88.83
51878;SHT31;37911;51.526;11.536;2024-01-16T06:55:13;-1.01;88.67
51878;SHT31;37911;51.526;11.536;2024-01-16T06:58:17;-1.02;88.37
51878;SHT31;37911;51.526;11.536;2024-01-16T07:01:22;-1.00;87.64
51878;SHT31;37911;51.526;11.536;2024-01-16T07:04:26;-0.94;87.10
51878;SHT31;37911;51.526;11.536;2024-01-16T07:07:29;-0.92;86.51
51878;SHT31;37911;51.526;11.536;2024-01-16T07:10:33;-0.95;86.10
51878;SHT31;37911;51.526;11.536;2024-01-16T07:13:36;-0.85;85.58
51878;SHT31;37911;51.526;11.536;2024-01-16T07:16:42;-0.94;85.74
51878;SHT31;37911;51.526;11.536;2024-01-16T07:19:45;-1.00;85.88
51878;SHT31;37911;51.526;11.536;2024-01-16T07:22:49;-0.95;85.91
51878;SHT31;37911;51.526;11.536;2024-01-16T07:25:52;-0.95;85.92
51878;SHT31;37911;51.526;11.536;2024-01-16T07:28:55;-0.98;86.20
51878;SHT31;37911;51.526;11.536;2024-01-16T07:32:01;-0.88;86.10
51878;SHT31;37911;51.526;11.536;2024-01-16T07:35:05;-0.92;86.12
51878;SHT31;37911;51.526;11.536;2024-01-16T07:38:09;-0.88;85.88
51878;SHT31;37911;51.526;11.536;2024-01-16T07:41:12;-0.91;86.11
51878;SHT31;37911;51.526;11.536;2024-01-16T07:44:15;-0.91;86.12
51878;SHT31;37911;51.526;11.536;2024-01-16T07:47:21;-0.90;86.26
51878;SHT31;37911;51.526;11.536;2024-01-16T07:50:25;-0.85;86.21
51878;SHT31;37911;51.526;11.536;2024-01-16T07:53:28;-0.91;86.49
51878;SHT31;37911;51.526;11.536;2024-01-16T07:56:31;-0.88;86.38
51878;SHT31;37911;51.526;11.536;2024-01-16T07:59:34;-0.85;86.38
51878;SHT31;37911;51.526;11.536;2024-01-16T08:02:40;-0.81;86.43
51878;SHT31;37911;51.526;11.536;2024-01-16T08:05:44;-0.80;86.41
51878;SHT31;37911;51.526;11.536;2024-01-16T08:08:47;-0.71;86.05
51878;SHT31;37911;51.526;11.536;2024-01-16T08:11:50;-0.66;86.03
51878;SHT31;37911;51.526;11.536;2024-01-16T08:14:54;-0.66;85.99
51878;SHT31;37911;51.526;11.536;2024-01-16T08:18:00;-0.66;86.03
51878;SHT31;37911;51.526;11.536;2024-01-16T08:21:03;-0.64;86.01
51878;SHT31;37911;51.526;11.536;2024-01-16T08:24:08;-0.53;85.87
51878;SHT31;37911;51.526;11.536;2024-01-16T08:27:11;-0.57;86.11
51878;SHT31;37911;51.526;11.536;2024-01-16T08:30:15;-0.46;85.84
51878;SHT31;37911;51.526;11.536;2024-01-16T08:33:21;-0.44;85.83
51878;SHT31;37911;51.526;11.536;2024-01-16T08:36:24;-0.37;85.70
51878;SHT31;37911;51.526;11.536;2024-01-16T08:39:27;-0.26;85.51
51878;SHT31;37911;51.526;11.536;2024-01-16T08:42:33;-0.22;85.24
51878;SHT31;37911;51.526;11.536;2024-01-16T08:45:36;-0.22;85.38
51878;SHT31;37911;51.526;11.536;2024-01-16T08:48:43;-0.13;85.25
51878;SHT31;37911;51.526;11.536;2024-01-16T08:51:46;-0.05;85.08
51878;SHT31;37911;51.526;11.536;2024-01-16T08:54:49;0.02;84.74
51878;SHT31;37911;51.526;11.536;2024-01-16T08:57:53;0.11;84.54
51878;SHT31;37911;51.526;11.536;2024-01-16T09:00:56;0.15;84.56
51878;SHT31;37911;51.526;11.536;2024-01-16T09:04:02;0.18;84.43
51878;SHT31;37911;51.526;11.536;2024-01-16T09:07:05;0.21;84.17
51878;SHT31;37911;51.526;11.536;2024-01-16T09:10:09;0.26;83.69
51878;SHT31;37911;51.526;11.536;2024-01-16T09:13:13;0.26;83.53
51878;SHT31;37911;51.526;11.536;2024-01-16T09:16:17;0.25;83.61
51878;SHT31;37911;51.526;11.536;2024-01-16T09:19:22;0.28;83.84
51878;SHT31;37911;51.526;11.536;2024-01-16T09:22:26;0.32;84.07
51878;SHT31;37911;51.526;11.536;2024-01-16T09:25:29;0.30;83.93
51878;SHT31;37911;51.526;11.536;2024-01-16T09:28:32;0.41;83.77
51878;SHT31;37911;51.526;11.536;2024-01-16T09:31:36;0.42;83.41
51878;SHT31;37911;51.526;11.536;2024-01-16T09:34:42;0.58;83.03
51878;SHT31;37911;51.526;11.536;2024-01-16T09:37:45;0.50;83.44
51878;SHT31;37911;51.526;11.536;2024-01-16T09:40:48;0.53;83.39
51878;SHT31;37911;51.526;11.536;2024-01-16T09:43:52;0.60;82.97
51878;SHT31;37911;51.526;11.536;2024-01-16T09:46:57;0.56;83.62
51878;SHT31;37911;51.526;11.536;2024-01-16T09:50:05;0.62;83.26
51878;SHT31;37911;51.526;11.536;2024-01-16T09:53:08;0.62;83.30
51878;SHT31;37911;51.526;11.536;2024-01-16T09:56:14;0.60;83.61
51878;SHT31;37911;51.526;11.536;2024-01-16T09:59:18;0.63;83.59
51878;SHT31;37911;51.526;11.536;2024-01-16T10:02:23;0.65;83.11
51878;SHT31;37911;51.526;11.536;2024-01-16T10:05:30;0.72;82.96
51878;SHT31;37911;51.526;11.536;2024-01-16T10:08:34;0.76;83.18
51878;SHT31;37911;51.526;11.536;2024-01-16T10:11:37;0.80;83.18
51878;SHT31;37911;51.526;11.536;2024-01-16T10:14:41;0.90;82.87
51878;SHT31;37911;51.526;11.536;2024-01-16T10:17:47;0.81;83.02
51878;SHT31;37911;51.526;11.536;2024-01-16T10:20:53;0.84;82.50
51878;SHT31;37911;51.526;11.536;2024-01-16T10:24:10;0.87;82.53
51878;SHT31;37911;51.526;11.536;2024-01-16T10:27:15;0.94;82.36
51878;SHT31;37911;51.526;11.536;2024-01-16T10:30:21;0.83;82.98
51878;SHT31;37911;51.526;11.536;2024-01-16T10:33:26;0.87;83.27
51878;SHT31;37911;51.526;11.536;2024-01-16T10:36:32;0.89;83.27
51878;SHT31;37911;51.526;11.536;2024-01-16T10:39:35;0.90;83.37
51878;SHT31;37911;51.526;11.536;2024-01-16T10:42:39;1.03;83.21
51878;SHT31;37911;51.526;11.536;2024-01-16T10:45:43;0.97;83.46
51878;SHT31;37911;51.526;11.536;2024-01-16T10:49:00;1.00;83.75
51878;SHT31;37911;51.526;11.536;2024-01-16T10:52:09;1.05;83.29
51878;SHT31;37911;51.526;11.536;2024-01-16T10:55:19;1.01;83.14
51878;SHT31;37911;51.526;11.536;2024-01-16T10:58:22;1.04;83.48
51878;SHT31;37911;51.526;11.536;2024-01-16T11:01:26;0.99;83.41
51878;SHT31;37911;51.526;11.536;2024-01-16T11:04:31;1.00;83.51
51878;SHT31;37911;51.526;11.536;2024-01-16T11:07:38;1.00;83.29
51878;SHT31;37911;51.526;11.536;2024-01-16T11:10:44;0.94;83.26
51878;SHT31;37911;51.526;11.536;2024-01-16T11:13:48;0.93;83.55
51878;SHT31;37911;51.526;11.536;2024-01-16T11:16:53;0.87;83.71
51878;SHT31;37911;51.526;11.536;2024-01-16T11:19:58;0.84;83.95
51878;SHT31;37911;51.526;11.536;2024-01-16T11:23:05;0.77;84.12
51878;SHT31;37911;51.526;11.536;2024-01-16T11:26:25;0.79;84.35
51878;SHT31;37911;51.526;11.536;2024-01-16T11:29:35;0.86;84.18
51878;SHT31;37911;51.526;11.536;2024-01-16T11:32:40;0.83;84.20
51878;SHT31;37911;51.526;11.536;2024-01-16T11:35:45;0.86;83.72
51878;SHT31;37911;51.526;11.536;2024-01-16T11:38:55;0.96;83.56
51878;SHT31;37911;51.526;11.536;2024-01-16T11:42:00;0.86;83.89
51878;SHT31;37911;51.526;11.536;2024-01-16T11:45:04;0.90;83.81
51878;SHT31;37911;51.526;11.536;2024-01-16T11:48:09;0.97;83.72
51878;SHT31;37911;51.526;11.536;2024-01-16T11:51:23;0.96;83.84
51878;SHT31;37911;51.526;11.536;2024-01-16T11:54:29;1.01;83.76
51878;SHT31;37911;51.526;11.536;2024-01-16T11:57:45;0.99;83.59
51878;SHT31;37911;51.526;11.536;2024-01-16T12:00:52;1.07;83.31
51878;SHT31;37911;51.526;11.536;2024-01-16T12:04:04;1.11;83.70
51878;SHT31;37911;51.526;11.536;2024-01-16T12:07:08;1.05;83.84
51878;SHT31;37911;51.526;11.536;2024-01-16T12:10:14;1.10;83.37
51878;SHT31;37911;51.526;11.536;2024-01-16T12:13:17;1.19;83.07
51878;SHT31;37911;51.526;11.536;2024-01-16T12:16:21;1.19;83.44
51878;SHT31;37911;51.526;11.536;2024-01-16T12:19:27;1.26;83.40
51878;SHT31;37911;51.526;11.536;2024-01-16T12:22:30;1.30;82.76
51878;SHT31;37911;51.526;11.536;2024-01-16T12:25:37;1.26;82.51
51878;SHT31;37911;51.526;11.536;2024-01-16T12:28:41;1.30;82.83
51878;SHT31;37911;51.526;11.536;2024-01-16T12:31:44;1.31;82.77
51878;SHT31;37911;51.526;11.536;2024-01-16T12:34:48;1.35;82.79
51878;SHT31;37911;51.526;11.536;2024-01-16T12:37:58;1.43;82.88
51878;SHT31;37911;51.526;11.536;2024-01-16T12:41:05;1.44;82.97
51878;SHT31;37911;51.526;11.536;2024-01-16T12:44:10;1.51;82.90
51878;SHT31;37911;51.526;11.536;2024-01-16T12:47:15;1.55;82.93
51878;SHT31;37911;51.526;11.536;2024-01-16T12:50:20;1.64;82.72
51878;SHT31;37911;51.526;11.536;2024-01-16T12:53:24;1.74;81.91
51878;SHT31;37911;51.526;11.536;2024-01-16T12:56:30;1.72;81.39
51878;SHT31;37911;51.526;11.536;2024-01-16T12:59:33;1.71;81.06
51878;SHT31;37911;51.526;11.536;2024-01-16T13:02:37;1.76;80.69
51878;SHT31;37911;51.526;11.536;2024-01-16T13:05:40;1.83;80.95
51878;SHT31;37911;51.526;11.536;2024-01-16T13:08:43;1.83;80.09
51878;SHT31;37911;51.526;11.536;2024-01-16T13:11:51;1.75;80.26
51878;SHT31;37911;51.526;11.536;2024-01-16T13:14:55;1.76;80.77
51878;SHT31;37911;51.526;11.536;2024-01-16T13:17:58;1.76;80.14
51878;SHT31;37911;51.526;11.536;2024-01-16T13:21:03;1.69;80.20
51878;SHT31;37911;51.526;11.536;2024-01-16T13:24:07;1.74;80.08
51878;SHT31;37911;51.526;11.536;2024-01-16T13:27:13;1.64;80.43
51878;SHT31;37911;51.526;11.536;2024-01-16T13:30:16;1.66;80.76
51878;SHT31;37911;51.526;11.536;2024-01-16T13:33:23;1.64;80.25
51878;SHT31;37911;51.526;11.536;2024-01-16T13:36:27;1.59;79.92
51878;SHT31;37911;51.526;11.536;2024-01-16T13:39:31;1.51;80.46
51878;SHT31;37911;51.526;11.536;2024-01-16T13:42:41;1.45;80.51
51878;SHT31;37911;51.526;11.536;2024-01-16T13:45:44;1.48;80.27
51878;SHT31;37911;51.526;11.536;2024-01-16T13:48:50;1.44;80.77
51878;SHT31;37911;51.526;11.536;2024-01-16T13:51:53;1.50;80.76
51878;SHT31;37911;51.526;11.536;2024-01-16T13:54:56;1.51;80.56
51878;SHT31;37911;51.526;11.536;2024-01-16T13:58:05;1.52;79.96
51878;SHT31;37911;51.526;11.536;2024-01-16T14:01:08;1.45;80.00
51878;SHT31;37911;51.526;11.536;2024-01-16T14:04:11;1.40;80.27
51878;SHT31;37911;51.526;11.536;2024-01-16T14:07:15;1.43;79.58
51878;SHT31;37911;51.526;11.536;2024-01-16T14:10:20;1.43;79.34
51878;SHT31;37911;51.526;11.536;2024-01-16T14:13:28;1.35;79.56
51878;SHT31;37911;51.526;11.536;2024-01-16T14:16:31;1.38;79.17
51878;SHT31;37911;51.526;11.536;2024-01-16T14:19:35;1.35;79.50
51878;SHT31;37911;51.526;11.536;2024-01-16T14:22:39;1.35;79.48
51878;SHT31;37911;51.526;11.536;2024-01-16T14:25:43;1.37;79.13
51878;SHT31;37911;51.526;11.536;2024-01-16T14:28:50;1.38;77.94
51878;SHT31;37911;51.526;11.536;2024-01-16T14:31:53;1.37;78.84
51878;SHT31;37911;51.526;11.536;2024-01-16T14:34:56;1.31;78.87
51878;SHT31;37911;51.526;11.536;2024-01-16T14:38:00;1.30;78.64
51878;SHT31;37911;51.526;11.536;2024-01-16T14:41:03;1.26;78.54
51878;SHT31;37911;51.526;11.536;2024-01-16T14:44:12;1.30;78.44
51878;SHT31;37911;51.526;11.536;2024-01-16T14:47:15;1.26;78.27
51878;SHT31;37911;51.526;11.536;2024-01-16T14:50:19;1.27;77.47
51878;SHT31;37911;51.526;11.536;2024-01-16T14:53:22;1.27;77.68
51878;SHT31;37911;51.526;11.536;2024-01-16T14:56:26;1.19;78.00
51878;SHT31;37911;51.526;11.536;2024-01-16T14:59:33;1.16;77.96
51878;SHT31;37911;51.526;11.536;2024-01-16T15:02:36;1.10;77.27
51878;SHT31;37911;51.526;11.536;2024-01-16T15:05:39;1.08;77.51
51878;SHT31;37911;51.526;11.536;2024-01-16T15:08:43;1.13;77.05
51878;SHT31;37911;51.526;11.536;2024-01-16T15:11:49;1.03;77.34
51878;SHT31;37911;51.526;11.536;2024-01-16T15:14:55;1.03;77.40
51878;SHT31;37911;51.526;11.536;2024-01-16T15:17:59;1.00;77.67
51878;SHT31;37911;51.526;11.536;2024-01-16T15:21:04;0.94;78.01
51878;SHT31;37911;51.526;11.536;2024-01-16T15:24:08;0.93;78.28
51878;SHT31;37911;51.526;11.536;2024-01-16T15:27:16;0.90;78.43
51878;SHT31;37911;51.526;11.536;2024-01-16T15:30:23;0.90;78.29
51878;SHT31;37911;51.526;11.536;2024-01-16T15:33:32;0.84;78.86
51878;SHT31;37911;51.526;11.536;2024-01-16T15:36:36;0.80;78.93
51878;SHT31;37911;51.526;11.536;2024-01-16T15:39:39;0.76;79.20
51878;SHT31;37911;51.526;11.536;2024-01-16T15:42:43;0.73;79.21
51878;SHT31;37911;51.526;11.536;2024-01-16T15:45:48;0.70;79.35
51878;SHT31;37911;51.526;11.536;2024-01-16T15:48:52;0.70;79.53
51878;SHT31;37911;51.526;11.536;2024-01-16T15:51:57;0.69;79.86
51878;SHT31;37911;51.526;11.536;2024-01-16T15:55:01;0.72;79.28
51878;SHT31;37911;51.526;11.536;2024-01-16T15:58:05;0.75;78.95
51878;SHT31;37911;51.526;11.536;2024-01-16T16:01:10;0.69;79.03
51878;SHT31;37911;51.526;11.536;2024-01-16T16:04:14;0.72;79.63
51878;SHT31;37911;51.526;11.536;2024-01-16T16:07:18;0.73;79.82
51878;SHT31;37911;51.526;11.536;2024-01-16T16:10:21;0.65;80.11
51878;SHT31;37911;51.526;11.536;2024-01-16T16:13:25;0.62;80.77
51878;SHT31;37911;51.526;11.536;2024-01-16T16:16:34;0.65;80.67
51878;SHT31;37911;51.526;11.536;2024-01-16T16:19:37;0.55;81.44
51878;SHT31;37911;51.526;11.536;2024-01-16T16:22:41;0.58;81.50
51878;SHT31;37911;51.526;11.536;2024-01-16T16:25:45;0.59;81.37
51878;SHT31;37911;51.526;11.536;2024-01-16T16:28:49;0.56;81.63
51878;SHT31;37911;51.526;11.536;2024-01-16T16:31:57;0.53;82.15
51878;SHT31;37911;51.526;11.536;2024-01-16T16:35:00;0.56;82.02
51878;SHT31;37911;51.526;11.536;2024-01-16T16:38:05;0.46;82.57
51878;SHT31;37911;51.526;11.536;2024-01-16T16:41:10;0.46;82.96
51878;SHT31;37911;51.526;11.536;2024-01-16T16:44:14;0.45;82.90
51878;SHT31;37911;51.526;11.536;2024-01-16T16:47:22;0.45;83.05
51878;SHT31;37911;51.526;11.536;2024-01-16T16:50:25;0.45;82.77
51878;SHT31;37911;51.526;11.536;2024-01-16T16:53:31;0.42;83.26
51878;SHT31;37911;51.526;11.536;2024-01-16T16:56:35;0.39;83.88
51878;SHT31;37911;51.526;11.536;2024-01-16T16:59:41;0.33;84.58
51878;SHT31;37911;51.526;11.536;2024-01-16T17:02:48;0.35;85.08
51878;SHT31;37911;51.526;11.536;2024-01-16T17:05:51;0.32;85.26
51878;SHT31;37911;51.526;11.536;2024-01-16T17:08:55;0.29;85.48
51878;SHT31;37911;51.526;11.536;2024-01-16T17:11:59;0.18;85.96
51878;SHT31;37911;51.526;11.536;2024-01-16T17:15:03;0.18;85.92
51878;SHT31;37911;51.526;11.536;2024-01-16T17:18:09;0.19;85.72
51878;SHT31;37911;51.526;11.536;2024-01-16T17:21:13;0.08;85.86
51878;SHT31;37911;51.526;11.536;2024-01-16T17:24:16;0.05;85.95
51878;SHT31;37911;51.526;11.536;2024-01-16T17:27:20;0.04;85.92
51878;SHT31;37911;51.526;11.536;2024-01-16T17:30:27;-0.02;85.99
51878;SHT31;37911;51.526;11.536;2024-01-16T17:33:33;-0.03;86.03
51878;SHT31;37911;51.526;11.536;2024-01-16T17:36:37;-0.06;86.26
51878;SHT31;37911;51.526;11.536;2024-01-16T17:39:42;-0.10;86.43
51878;SHT31;37911;51.526;11.536;2024-01-16T17:42:46;-0.10;86.65
51878;SHT31;37911;51.526;11.536;2024-01-16T17:45:50;-0.07;86.56
51878;SHT31;37911;51.526;11.536;2024-01-16T17:48:56;-0.09;86.26
51878;SHT31;37911;51.526;11.536;2024-01-16T17:51:59;-0.12;86.20
51878;SHT31;37911;51.526;11.536;2024-01-16T17:55:05;-0.13;86.16
51878;SHT31;37911;51.526;11.536;2024-01-16T17:58:10;-0.13;86.24
51878;SHT31;37911;51.526;11.536;2024-01-16T18:01:15;-0.05;85.29
51878;SHT31;37911;51.526;11.536;2024-01-16T18:04:21;-0.10;85.24
51878;SHT31;37911;51.526;11.536;2024-01-16T18:07:24;-0.15;85.10
51878;SHT31;37911;51.526;11.536;2024-01-16T18:10:28;-0.17;84.58
51878;SHT31;37911;51.526;11.536;2024-01-16T18:13:33;-0.16;84.24
51878;SHT31;37911;51.526;11.536;2024-01-16T18:16:37;-0.22;83.95
51878;SHT31;37911;51.526;11.536;2024-01-16T18:19:43;-0.23;83.06
51878;SHT31;37911;51.526;11.536;2024-01-16T18:22:47;-0.25;83.23
51878;SHT31;37911;51.526;11.536;2024-01-16T18:25:56;-0.30;83.08
51878;SHT31;37911;51.526;11.536;2024-01-16T18:28:59;-0.36;83.01
51878;SHT31;37911;51.526;11.536;2024-01-16T18:32:04;-0.44;83.02
51878;SHT31;37911;51.526;11.536;2024-01-16T18:35:11;-0.52;83.07
51878;SHT31;37911;51.526;11.536;2024-01-16T18:38:17;-0.47;82.78
51878;SHT31;37911;51.526;11.536;2024-01-16T18:41:21;-0.53;83.05
51878;SHT31;37911;51.526;11.536;2024-01-16T18:44:24;-0.52;82.46
51878;SHT31;37911;51.526;11.536;2024-01-16T18:47:28;-0.61;82.51
51878;SHT31;37911;51.526;11.536;2024-01-16T18:50:34;-0.63;82.23
51878;SHT31;37911;51.526;11.536;2024-01-16T18:53:38;-0.67;82.42
51878;SHT31;37911;51.526;11.536;2024-01-16T18:56:41;-0.74;82.78
51878;SHT31;37911;51.526;11.536;2024-01-16T18:59:44;-0.71;82.49
51878;SHT31;37911;51.526;11.536;2024-01-16T19:02:48;-0.77;82.37
51878;SHT31;37911;51.526;11.536;2024-01-16T19:05:55;-0.84;82.59
51878;SHT31;37911;51.526;11.536;2024-01-16T19:08:58;-0.84;82.63
51878;SHT31;37911;51.526;11.536;2024-01-16T19:12:06;-0.85;82.19
51878;SHT31;37911;51.526;11.536;2024-01-16T19:15:12;-0.87;82.30
51878;SHT31;37911;51.526;11.536;2024-01-16T19:18:17;-0.88;82.23